METAR Data
IDs: Format: Raw Decoded Include TAF

Data at: 0116 UTC 06 Dec 2019

METAR for:KHGR (Hagerstown Rgnl, MD, US)
Text:KHGR 060053Z 31006KT 10SM CLR 03/M05 A3010 RMK AO2 SLP209 T00281050
Temperature: 2.8°C ( 37°F)
Dewpoint: -5.0°C ( 23°F) [RH = 56%]
Pressure (altimeter):30.10 inches Hg (1019.4 mb) [Sea level pressure: 1020.9 mb]
Winds:from the NW (310 degrees) at 7 MPH (6 knots; 3.1 m/s)
Visibility:10 or more sm (16+ km)
Ceiling:at least 12,000 feet AGL
Clouds:sky clear below 12,000 feet AGL